createdAt,value
2018-10-18T00:00:35.382Z,38.50
2018-10-18T00:03:04.443Z,39.47
2018-10-18T00:05:33.507Z,38.23
2018-10-18T00:08:02.664Z,38.90
2018-10-18T00:10:31.400Z,39.70
2018-10-18T00:13:00.012Z,40.30
2018-10-18T00:15:28.739Z,41.60
2018-10-18T00:17:57.560Z,39.27
2018-10-18T00:20:26.712Z,39.17
2018-10-18T00:22:55.394Z,38.30
2018-10-18T00:25:24.117Z,37.07
2018-10-18T00:27:52.806Z,37.47
2018-10-18T00:30:21.800Z,37.00
2018-10-18T00:32:50.652Z,39.97
2018-10-18T00:35:19.507Z,41.37
2018-10-18T00:37:48.399Z,39.00
2018-10-18T00:40:17.248Z,39.40
2018-10-18T00:42:45.990Z,38.10
2018-10-18T00:45:14.737Z,38.23
2018-10-18T00:47:43.499Z,37.60
2018-10-18T00:50:19.187Z,36.50
2018-10-18T00:52:47.793Z,37.40
2018-10-18T00:55:16.870Z,38.27
2018-10-18T00:57:45.827Z,39.83
2018-10-18T01:00:14.667Z,37.83
2018-10-18T01:02:46.302Z,37.30
2018-10-18T01:05:15.339Z,37.50
2018-10-18T01:07:44.252Z,37.37
2018-10-18T01:10:13.308Z,37.67
2018-10-18T01:12:42.101Z,38.23
2018-10-18T01:15:11.149Z,38.27
2018-10-18T01:17:40.767Z,35.90
2018-10-18T01:20:09.618Z,38.83
2018-10-18T01:22:38.419Z,38.20
2018-10-18T01:25:07.559Z,38.00
2018-10-18T01:27:36.411Z,36.00
2018-10-18T01:30:05.730Z,39.10
2018-10-18T01:32:34.346Z,37.90
2018-10-18T01:35:03.429Z,37.03
2018-10-18T01:37:32.062Z,37.83
2018-10-18T01:40:01.047Z,37.87
2018-10-18T01:42:29.866Z,38.40
2018-10-18T01:44:58.630Z,37.47
2018-10-18T01:47:27.745Z,37.80
2018-10-18T01:49:56.620Z,34.70
2018-10-18T01:52:25.737Z,37.27
2018-10-18T01:54:54.631Z,36.53
2018-10-18T01:57:23.535Z,36.30
2018-10-18T01:59:52.427Z,37.40
2018-10-18T02:02:21.316Z,36.10
2018-10-18T02:04:50.085Z,36.53
2018-10-18T02:07:18.807Z,37.90
2018-10-18T02:09:47.751Z,37.87
2018-10-18T02:12:16.623Z,36.57
2018-10-18T02:14:45.332Z,37.40
2018-10-18T02:17:14.344Z,37.53
2018-10-18T02:19:43.212Z,35.20
2018-10-18T02:22:12.075Z,36.93
2018-10-18T02:24:40.841Z,38.30
2018-10-18T02:27:09.584Z,39.53
2018-10-18T02:29:38.250Z,38.67
2018-10-18T02:32:07.230Z,38.37
2018-10-18T02:34:36.158Z,38.47
2018-10-18T02:37:06.327Z,38.30
2018-10-18T02:39:35.169Z,36.80
2018-10-18T02:42:04.563Z,36.10
2018-10-18T02:44:33.347Z,38.63
2018-10-18T02:47:02.159Z,37.00
2018-10-18T02:49:30.768Z,37.20
2018-10-18T02:51:59.531Z,37.00
2018-10-18T02:54:28.140Z,37.80
2018-10-18T02:56:57.270Z,36.60
2018-10-18T02:59:26.688Z,34.90
2018-10-18T03:01:55.485Z,36.93
2018-10-18T03:04:24.328Z,35.67
2018-10-18T03:06:53.094Z,38.50
2018-10-18T03:09:22.063Z,36.30
2018-10-18T03:11:50.888Z,37.07
2018-10-18T03:14:19.695Z,37.60
2018-10-18T03:16:48.540Z,38.77
2018-10-18T03:19:17.355Z,37.50
2018-10-18T03:21:46.279Z,38.70
2018-10-18T03:24:15.125Z,36.37
2018-10-18T03:26:44.514Z,35.90
2018-10-18T03:29:13.287Z,38.60
2018-10-18T03:31:41.946Z,37.60
2018-10-18T03:34:10.746Z,37.40
2018-10-18T03:36:39.650Z,35.73
2018-10-18T03:39:10.633Z,34.97
2018-10-18T03:41:39.488Z,37.03
2018-10-18T03:44:08.355Z,36.30
2018-10-18T03:46:37.196Z,38.13
2018-10-18T03:49:06.154Z,37.00
2018-10-18T03:51:35.303Z,35.90
2018-10-18T03:54:04.020Z,37.67
2018-10-18T03:56:33.068Z,36.23
2018-10-18T03:59:01.713Z,38.00
2018-10-18T04:04:25.863Z,36.63
2018-10-18T04:06:54.279Z,37.00
2018-10-18T04:09:22.762Z,38.60
2018-10-18T04:11:51.134Z,36.93
2018-10-18T04:14:19.515Z,36.50
2018-10-18T04:16:47.836Z,38.03
2018-10-18T04:19:16.359Z,37.00
2018-10-18T04:21:44.890Z,36.63
2018-10-18T04:24:13.571Z,36.47
2018-10-18T04:26:41.968Z,37.70
2018-10-18T04:29:10.269Z,36.87
2018-10-18T04:31:38.604Z,38.20
2018-10-18T04:34:06.923Z,39.10
2018-10-18T04:36:35.281Z,36.60
2018-10-18T04:39:04.406Z,38.27
2018-10-18T04:41:33.631Z,38.03
2018-10-18T04:44:01.981Z,39.10
2018-10-18T04:46:30.365Z,38.20
2018-10-18T04:48:58.751Z,40.03
2018-10-18T04:51:27.159Z,37.37
2018-10-18T04:53:55.436Z,37.27
2018-10-18T04:56:23.915Z,38.10
2018-10-18T04:58:52.350Z,40.03
2018-10-18T05:01:21.058Z,37.80
2018-10-18T05:03:49.231Z,38.90
2018-10-18T05:06:17.730Z,39.83
2018-10-18T05:08:46.036Z,38.00
2018-10-18T05:11:14.412Z,38.37
2018-10-18T05:13:42.703Z,39.87
2018-10-18T05:16:11.144Z,38.87
2018-10-18T05:18:39.447Z,38.23
2018-10-18T05:21:07.995Z,41.93
2018-10-18T05:23:36.381Z,39.70
2018-10-18T05:26:06.850Z,42.47
2018-10-18T05:28:35.460Z,38.50
2018-10-18T05:31:03.849Z,43.07
2018-10-18T05:33:32.314Z,43.70
2018-10-18T05:36:01.109Z,47.43
2018-10-18T05:38:29.451Z,46.37
2018-10-18T05:40:58.554Z,51.00
2018-10-18T05:43:26.930Z,45.77
2018-10-18T05:45:56.021Z,48.90
2018-10-18T05:48:24.447Z,77.20
2018-10-18T05:50:52.823Z,52.87
2018-10-18T05:53:21.235Z,50.03
2018-10-18T05:55:50.068Z,45.10
2018-10-18T05:58:18.381Z,47.23
2018-10-18T06:00:47.072Z,44.23
2018-10-18T06:05:52.835Z,42.00
2018-10-18T06:08:21.114Z,43.90
2018-10-18T06:11:00.719Z,44.97
2018-10-18T06:13:29.052Z,47.87
2018-10-18T06:15:57.923Z,46.33
2018-10-18T06:18:26.235Z,46.20
2018-10-18T06:20:54.769Z,45.10
2018-10-18T06:23:23.220Z,45.70
2018-10-18T06:25:51.703Z,44.20
2018-10-18T06:28:20.306Z,43.03
2018-10-18T06:30:48.661Z,44.57
2018-10-18T06:33:17.172Z,45.03
2018-10-18T06:35:46.212Z,42.67
2018-10-18T06:38:14.676Z,44.40
2018-10-18T06:40:43.061Z,43.73
2018-10-18T06:43:11.698Z,44.53
2018-10-18T06:45:40.007Z,45.30
2018-10-18T06:48:08.433Z,44.70
2018-10-18T06:50:36.739Z,43.77
2018-10-18T06:53:05.202Z,44.80
2018-10-18T06:55:33.534Z,43.73
2018-10-18T06:58:01.858Z,46.10
2018-10-18T07:00:31.250Z,46.20
2018-10-18T07:02:59.608Z,45.70
2018-10-18T07:05:28.297Z,42.50
2018-10-18T07:07:57.120Z,46.17
2018-10-18T07:10:25.930Z,45.40
2018-10-18T07:12:54.542Z,50.60
2018-10-18T07:15:23.263Z,45.70
2018-10-18T07:17:51.762Z,50.00
2018-10-18T07:20:20.276Z,50.13
2018-10-18T07:22:49.422Z,53.30
2018-10-18T07:25:18.055Z,50.73
2018-10-18T07:27:46.508Z,53.30
2018-10-18T07:30:15.669Z,55.60
2018-10-18T07:32:43.997Z,53.63
2018-10-18T07:35:13.471Z,60.90
2018-10-18T07:37:41.658Z,53.40
2018-10-18T07:40:13.292Z,82.00
2018-10-18T07:42:42.008Z,62.00
2018-10-18T07:45:11.263Z,62.43
2018-10-18T07:47:39.747Z,68.50
2018-10-18T07:50:08.117Z,71.00
2018-10-18T07:52:36.710Z,60.97
2018-10-18T07:55:05.804Z,77.80
2018-10-18T07:57:34.220Z,75.43
2018-10-18T08:00:02.653Z,88.97
2018-10-18T08:02:30.983Z,90.07
2018-10-18T08:04:59.478Z,83.47
2018-10-18T08:07:28.370Z,76.60
2018-10-18T08:09:57.297Z,81.30
2018-10-18T08:12:25.763Z,83.73
2018-10-18T08:14:54.101Z,82.13
2018-10-18T08:17:22.537Z,81.43
2018-10-18T08:19:51.069Z,82.03
2018-10-18T08:22:19.469Z,80.67
2018-10-18T08:24:47.857Z,74.10
2018-10-18T08:27:16.361Z,79.40
2018-10-18T08:29:44.671Z,74.80
2018-10-18T08:32:13.007Z,77.03
2018-10-18T08:34:41.330Z,76.07
2018-10-18T08:37:09.918Z,74.97
2018-10-18T08:39:38.289Z,77.07
2018-10-18T08:42:06.870Z,73.57
2018-10-18T08:44:35.289Z,74.50
2018-10-18T08:47:03.687Z,72.10
2018-10-18T08:49:32.043Z,70.90
2018-10-18T08:52:00.377Z,73.07
2018-10-18T08:54:28.802Z,69.80
2018-10-18T08:56:57.184Z,69.30
2018-10-18T08:59:25.988Z,68.03
2018-10-18T09:01:54.360Z,69.57
2018-10-18T09:04:22.841Z,68.50
2018-10-18T09:06:51.215Z,68.63
2018-10-18T09:09:19.671Z,66.40
2018-10-18T09:11:48.415Z,66.37
2018-10-18T09:14:16.737Z,66.17
2018-10-18T09:16:45.243Z,65.50
2018-10-18T09:19:14.180Z,67.00
2018-10-18T09:21:42.660Z,66.00
2018-10-18T09:24:11.482Z,62.23
2018-10-18T09:26:40.052Z,63.57
2018-10-18T09:29:08.472Z,63.03
2018-10-18T09:31:36.951Z,60.60
2018-10-18T09:34:05.577Z,59.13
2018-10-18T09:36:33.951Z,62.43
2018-10-18T09:39:02.588Z,59.57
2018-10-18T09:41:31.069Z,59.50
2018-10-18T09:44:03.240Z,58.60
2018-10-18T09:46:32.477Z,57.30
2018-10-18T09:49:01.323Z,56.93
2018-10-18T09:51:29.747Z,54.77
2018-10-18T09:53:58.440Z,53.43
2018-10-18T09:56:26.868Z,54.23
2018-10-18T09:58:55.250Z,52.73
2018-10-18T10:01:30.433Z,52.20
2018-10-18T10:04:05.401Z,52.77
2018-10-18T10:06:33.781Z,53.83
2018-10-18T10:09:03.199Z,53.13
2018-10-18T10:11:32.424Z,53.37
2018-10-18T10:14:00.877Z,53.77
2018-10-18T10:16:29.295Z,53.40
2018-10-18T10:18:57.840Z,50.03
2018-10-18T10:21:26.224Z,52.40
2018-10-18T10:23:54.608Z,51.40
2018-10-18T10:26:23.288Z,52.47
2018-10-18T10:28:51.602Z,51.63
2018-10-18T10:31:20.232Z,48.03
2018-10-18T10:33:48.450Z,48.40
2018-10-18T10:36:16.838Z,45.70
2018-10-18T10:38:45.168Z,45.53
2018-10-18T10:41:13.595Z,49.10
2018-10-18T10:43:41.845Z,48.17
2018-10-18T10:46:10.224Z,45.83
2018-10-18T10:48:38.819Z,45.97
2018-10-18T10:51:07.229Z,45.27
2018-10-18T10:53:35.535Z,45.40
2018-10-18T10:56:03.942Z,48.10
2018-10-18T10:58:32.279Z,48.07
2018-10-18T11:01:08.795Z,48.50
2018-10-18T11:03:37.827Z,47.40
2018-10-18T11:06:06.228Z,48.00
2018-10-18T11:08:35.308Z,48.87
2018-10-18T11:11:03.872Z,50.37
2018-10-18T11:13:32.564Z,48.20
2018-10-18T11:16:02.681Z,51.50
2018-10-18T11:18:32.190Z,50.27
2018-10-18T11:21:01.108Z,48.93
2018-10-18T11:23:29.519Z,51.00
2018-10-18T11:25:58.029Z,51.67
2018-10-18T11:28:26.385Z,51.20
2018-10-18T11:30:54.790Z,51.80
2018-10-18T11:33:24.023Z,50.63
2018-10-18T11:35:52.405Z,51.90
2018-10-18T11:38:21.116Z,50.50
2018-10-18T11:40:49.660Z,51.13
2018-10-18T11:43:18.040Z,49.53
2018-10-18T11:45:46.427Z,50.87
2018-10-18T11:48:15.296Z,51.90
2018-10-18T11:50:44.172Z,50.80
2018-10-18T11:53:12.502Z,50.57
2018-10-18T11:55:40.995Z,50.63
2018-10-18T11:58:10.592Z,49.03
2018-10-18T12:00:38.979Z,49.23
2018-10-18T12:03:07.331Z,50.33
2018-10-18T12:05:35.812Z,49.13
2018-10-18T12:08:04.488Z,49.67
2018-10-18T12:10:33.006Z,47.20
2018-10-18T12:13:01.308Z,48.37
2018-10-18T12:15:29.769Z,49.30
2018-10-18T12:17:58.071Z,51.53
2018-10-18T12:20:26.422Z,49.60
2018-10-18T12:22:54.871Z,48.80
2018-10-18T12:25:23.479Z,46.80
2018-10-18T12:27:51.935Z,48.70
2018-10-18T12:30:20.471Z,49.67
2018-10-18T12:32:49.128Z,52.00
2018-10-18T12:35:17.627Z,50.00
2018-10-18T12:37:45.820Z,47.77
2018-10-18T12:40:14.256Z,49.23
2018-10-18T12:42:43.612Z,48.03
2018-10-18T12:45:12.731Z,46.90
2018-10-18T12:47:41.823Z,48.23
2018-10-18T12:50:10.241Z,47.10
2018-10-18T12:52:38.803Z,50.13
2018-10-18T12:55:07.352Z,46.30
2018-10-18T12:57:35.676Z,47.57
2018-10-18T13:00:04.055Z,47.97
2018-10-18T13:02:35.379Z,48.23
2018-10-18T13:05:03.712Z,49.63
2018-10-18T13:07:32.094Z,47.40
2018-10-18T13:10:00.423Z,47.47
2018-10-18T13:12:28.826Z,49.20
2018-10-18T13:14:57.098Z,49.60
2018-10-18T13:17:25.402Z,46.70
2018-10-18T13:19:54.391Z,53.53
2018-10-18T13:22:22.842Z,53.57
2018-10-18T13:24:51.127Z,52.43
2018-10-18T13:27:19.529Z,52.13
2018-10-18T13:29:47.829Z,53.20
2018-10-18T13:32:16.283Z,53.33
2018-10-18T13:34:44.654Z,55.07
2018-10-18T13:37:13.008Z,54.90
2018-10-18T13:39:41.423Z,54.20
2018-10-18T13:42:09.793Z,55.10
2018-10-18T13:44:38.105Z,53.50
2018-10-18T13:47:09.548Z,51.10
2018-10-18T13:49:37.890Z,51.47
2018-10-18T13:52:06.267Z,49.20
2018-10-18T13:54:34.927Z,51.17
2018-10-18T13:57:03.254Z,49.07
2018-10-18T13:59:42.913Z,49.13
2018-10-18T14:02:11.417Z,48.67
2018-10-18T14:04:42.483Z,48.57
2018-10-18T14:07:11.128Z,48.00
2018-10-18T14:09:39.695Z,47.87
2018-10-18T14:12:08.122Z,47.87
2018-10-18T14:14:36.430Z,47.97
2018-10-18T14:17:04.845Z,47.63
2018-10-18T14:19:33.130Z,47.73
2018-10-18T14:22:01.575Z,50.63
2018-10-18T14:24:30.013Z,49.63
2018-10-18T14:26:58.413Z,49.80
2018-10-18T14:29:26.835Z,47.80
2018-10-18T14:31:55.321Z,47.60
2018-10-18T14:34:24.897Z,48.13
2018-10-18T14:36:53.315Z,49.27
2018-10-18T14:39:21.739Z,49.07
2018-10-18T14:41:50.584Z,46.77
2018-10-18T14:44:19.002Z,48.03
2018-10-18T14:46:47.414Z,47.00
2018-10-18T14:49:16.011Z,48.60
2018-10-18T14:51:44.363Z,48.77
2018-10-18T14:54:12.876Z,47.47
2018-10-18T14:56:41.249Z,51.20
2018-10-18T14:59:09.624Z,48.60
2018-10-18T15:01:37.975Z,52.07
2018-10-18T15:04:06.876Z,48.60
2018-10-18T15:06:35.509Z,49.27
2018-10-18T15:09:03.923Z,49.37
2018-10-18T15:11:32.381Z,49.70
2018-10-18T15:14:00.749Z,50.73
2018-10-18T15:16:29.470Z,49.20
2018-10-18T15:18:57.843Z,47.87
2018-10-18T15:21:26.871Z,51.07
2018-10-18T15:23:55.299Z,49.17
2018-10-18T15:26:24.381Z,52.90
2018-10-18T15:28:52.884Z,51.63
2018-10-18T15:31:21.388Z,49.67
2018-10-18T15:33:50.693Z,49.27
2018-10-18T15:36:19.181Z,50.10
2018-10-18T15:38:47.907Z,48.53
2018-10-18T15:41:16.381Z,51.00
2018-10-18T15:43:44.686Z,48.70
2018-10-18T15:46:13.190Z,48.83
2018-10-18T15:48:41.668Z,48.60
2018-10-18T15:51:10.062Z,49.70
2018-10-18T15:53:38.597Z,49.60
2018-10-18T15:56:06.993Z,49.20
2018-10-18T15:58:35.618Z,48.53
2018-10-18T16:01:04.492Z,50.40
2018-10-18T16:03:32.994Z,50.77
2018-10-18T16:06:03.061Z,50.10
2018-10-18T16:08:31.427Z,50.97
2018-10-18T16:11:00.068Z,47.17
2018-10-18T16:13:36.967Z,50.23
2018-10-18T16:16:06.167Z,50.03
2018-10-18T16:18:34.646Z,49.33
2018-10-18T16:21:03.056Z,50.07
2018-10-18T16:23:31.467Z,47.00
2018-10-18T16:25:59.905Z,48.53
2018-10-18T16:28:29.246Z,50.20
2018-10-18T16:30:57.591Z,48.90
2018-10-18T16:33:26.124Z,49.50
2018-10-18T16:35:54.459Z,48.40
2018-10-18T16:38:22.813Z,50.37
2018-10-18T16:40:53.474Z,48.40
2018-10-18T16:43:22.446Z,49.17
2018-10-18T16:45:50.774Z,48.50
2018-10-18T16:48:19.142Z,47.77
2018-10-18T16:50:49.093Z,46.27
2018-10-18T16:53:17.422Z,43.57
2018-10-18T16:55:46.396Z,45.73
2018-10-18T16:58:14.851Z,44.67
2018-10-18T17:00:43.191Z,43.47
2018-10-18T17:03:11.975Z,43.27
2018-10-18T17:05:40.337Z,45.80
2018-10-18T17:08:08.973Z,44.80
2018-10-18T17:10:37.347Z,42.43
2018-10-18T17:13:06.318Z,42.67
2018-10-18T17:15:35.296Z,41.10
2018-10-18T17:18:04.075Z,40.43
2018-10-18T17:20:32.515Z,34.43
2018-10-18T17:23:00.938Z,27.90
2018-10-18T17:25:29.504Z,26.40
2018-10-18T17:27:58.116Z,25.20
2018-10-18T17:30:26.615Z,21.23
2018-10-18T17:32:54.974Z,21.73
2018-10-18T17:35:23.321Z,20.73
2018-10-18T17:37:52.240Z,17.97
2018-10-18T17:40:21.006Z,18.27
2018-10-18T17:42:49.775Z,18.20
2018-10-18T17:45:18.749Z,19.63
2018-10-18T17:47:48.426Z,18.60
2018-10-18T17:50:16.880Z,20.70
2018-10-18T17:52:45.188Z,20.93
2018-10-18T17:55:13.685Z,20.40
2018-10-18T17:57:42.104Z,21.23
2018-10-18T18:00:12.163Z,21.70
2018-10-18T18:02:42.724Z,22.80
2018-10-18T18:05:21.400Z,24.10
2018-10-18T18:07:49.806Z,24.17
2018-10-18T18:10:20.377Z,24.40
2018-10-18T18:12:48.711Z,25.40
2018-10-18T18:15:17.072Z,24.90
2018-10-18T18:17:45.469Z,25.33
2018-10-18T18:20:15.118Z,22.87
2018-10-18T18:22:46.623Z,24.17
2018-10-18T18:25:15.972Z,23.60
2018-10-18T18:27:44.455Z,22.40
2018-10-18T18:30:14.228Z,22.93
2018-10-18T18:32:42.903Z,22.50
2018-10-18T18:35:11.357Z,22.00
2018-10-18T18:37:39.690Z,22.83
2018-10-18T18:40:08.915Z,22.07
2018-10-18T18:42:37.639Z,22.97
2018-10-18T18:45:11.408Z,23.03
2018-10-18T18:47:39.691Z,23.63
2018-10-18T18:50:08.589Z,21.43
2018-10-18T18:52:36.876Z,24.67
2018-10-18T18:55:06.272Z,22.87
2018-10-18T18:57:36.899Z,24.70
2018-10-18T19:00:06.959Z,21.70
2018-10-18T19:02:35.862Z,23.47
2018-10-18T19:05:04.291Z,22.23
2018-10-18T19:07:33.403Z,23.80
2018-10-18T19:10:01.703Z,21.70
2018-10-18T19:12:30.305Z,22.93
2018-10-18T19:14:58.633Z,23.10
2018-10-18T19:17:27.031Z,22.47
2018-10-18T19:19:55.575Z,22.00
2018-10-18T19:22:23.994Z,20.93
2018-10-18T19:24:52.787Z,16.77
2018-10-18T19:27:22.603Z,17.10
2018-10-18T19:29:51.831Z,15.20
2018-10-18T19:32:20.235Z,14.13
2018-10-18T19:34:49.070Z,13.40
2018-10-18T19:37:17.631Z,13.03
2018-10-18T19:39:45.981Z,12.10
2018-10-18T19:42:14.307Z,12.37
2018-10-18T19:44:42.594Z,11.20
2018-10-18T19:47:10.911Z,12.03
2018-10-18T19:49:39.205Z,10.60
2018-10-18T19:52:07.734Z,10.60
2018-10-18T19:54:36.178Z,10.20
2018-10-18T19:57:04.635Z,10.23
2018-10-18T19:59:32.935Z,9.97
2018-10-18T20:02:01.310Z,10.07
2018-10-18T20:04:30.359Z,10.03
2018-10-18T20:06:58.788Z,10.73
2018-10-18T20:09:27.115Z,9.17
2018-10-18T20:11:55.570Z,9.40
2018-10-18T20:14:24.055Z,9.43
2018-10-18T20:16:52.535Z,9.23
2018-10-18T20:19:27.634Z,8.77
2018-10-18T20:21:56.023Z,8.60
2018-10-18T20:24:24.496Z,8.97
2018-10-18T20:26:53.165Z,8.83
2018-10-18T20:29:22.047Z,9.43
2018-10-18T20:31:50.631Z,8.83
2018-10-18T20:34:18.943Z,8.40
2018-10-18T20:36:47.898Z,7.73
2018-10-18T20:39:16.248Z,8.97
2018-10-18T20:41:44.995Z,8.57
2018-10-18T20:44:13.371Z,7.43
2018-10-18T20:46:41.858Z,8.00
2018-10-18T20:49:10.564Z,6.93
2018-10-18T20:51:42.390Z,7.20
2018-10-18T20:54:11.403Z,6.50
2018-10-18T20:56:39.956Z,6.60
2018-10-18T20:59:08.411Z,5.70
2018-10-18T21:01:36.724Z,6.03
2018-10-18T21:04:08.386Z,5.50
2018-10-18T21:06:37.037Z,6.73
2018-10-18T21:09:07.714Z,5.47
2018-10-18T21:11:36.121Z,5.67
2018-10-18T21:14:04.773Z,5.57
2018-10-18T21:16:33.471Z,5.20
2018-10-18T21:19:01.787Z,4.87
2018-10-18T21:21:30.286Z,4.80
2018-10-18T21:23:58.767Z,4.30
2018-10-18T21:26:27.124Z,4.50
2018-10-18T21:28:55.646Z,4.67
2018-10-18T21:31:24.212Z,4.97
2018-10-18T21:33:52.935Z,4.97
2018-10-18T21:36:21.248Z,4.13
2018-10-18T21:38:50.241Z,3.93
2018-10-18T21:41:18.575Z,4.47
2018-10-18T21:43:46.878Z,3.47
2018-10-18T21:46:15.238Z,4.63
2018-10-18T21:48:44.129Z,3.47
2018-10-18T21:51:12.633Z,4.03
2018-10-18T21:53:40.818Z,2.60
2018-10-18T21:56:09.248Z,3.70
2018-10-18T21:58:37.527Z,2.83
2018-10-18T22:01:06.055Z,3.20
2018-10-18T22:03:35.564Z,3.37
2018-10-18T22:06:03.880Z,3.20
2018-10-18T22:08:32.184Z,3.13
2018-10-18T22:11:01.002Z,2.40
2018-10-18T22:13:29.357Z,3.20
2018-10-18T22:15:57.670Z,2.90
2018-10-18T22:18:25.954Z,2.57
2018-10-18T22:20:54.481Z,2.30
2018-10-18T22:23:23.461Z,2.80
2018-10-18T22:25:51.806Z,3.00
2018-10-18T22:28:21.210Z,3.10
2018-10-18T22:30:49.813Z,2.30
2018-10-18T22:33:20.709Z,2.60
2018-10-18T22:35:51.644Z,2.50
2018-10-18T22:38:21.197Z,2.20
2018-10-18T22:40:49.580Z,2.50
2018-10-18T22:43:18.147Z,3.13
2018-10-18T22:45:51.926Z,2.33
2018-10-18T22:48:20.454Z,2.10
2018-10-18T22:50:50.599Z,2.83
2018-10-18T22:53:20.701Z,2.60
2018-10-18T22:55:51.745Z,2.40
2018-10-18T22:58:21.664Z,2.20
2018-10-18T23:00:54.285Z,3.20
2018-10-18T23:03:24.827Z,2.10
2018-10-18T23:05:55.458Z,2.50
2018-10-18T23:08:25.238Z,2.17
2018-10-18T23:10:54.101Z,3.40
2018-10-18T23:13:22.437Z,2.70
2018-10-18T23:15:51.140Z,2.33
2018-10-18T23:18:19.471Z,2.23
2018-10-18T23:20:48.044Z,2.80
2018-10-18T23:23:16.521Z,3.10
2018-10-18T23:25:45.024Z,3.13
2018-10-18T23:28:13.934Z,3.07
2018-10-18T23:30:43.198Z,3.07
2018-10-18T23:33:11.577Z,2.90
2018-10-18T23:35:40.270Z,2.30
2018-10-18T23:38:08.563Z,2.70
2018-10-18T23:40:36.875Z,2.30
2018-10-18T23:43:05.387Z,2.90
2018-10-18T23:45:33.746Z,3.10
2018-10-18T23:48:02.058Z,3.10
2018-10-18T23:50:30.374Z,2.60
2018-10-18T23:52:58.680Z,2.43
2018-10-18T23:55:27.150Z,2.70
2018-10-18T23:57:55.431Z,2.87
